Time;durP1;ratioP1;P1;durP2;ratioP2;P2;SDS_P1;SDS_P2;PMS_P1;PMS_P2;Temp;Humidity;BMP_temperature;BMP_pressure;BME280_temperature;BME280_humidity;BME280_pressure;Samples;Min_cycle;Max_cycle;Signal;HPM_P1;HPM_P2
2023/02/01 00:01:54;;;;;;;45.33;24.87;;;;;;;;;;5013541;28;20033;-75
2023/02/01 00:04:20;;;;;;;43.83;22.77;;;;;;;;;;5012968;28;20034;-76
2023/02/01 00:06:46;;;;;;;45.43;24.13;;;;;;;;;;5013505;28;20034;-76
2023/02/01 00:09:12;;;;;;;40.67;22.90;;;;;;;;;;5013448;28;20061;-75
2023/02/01 00:11:38;;;;;;;44.17;23.60;;;;;;;;;;4995859;28;20044;-75
2023/02/01 00:14:04;;;;;;;60.37;23.10;;;;;;;;;;5013349;28;20029;-76
2023/02/01 00:16:31;;;;;;;55.67;23.73;;;;;;;;;;5013445;28;20117;-76
2023/02/01 00:19:13;;;;;;;58.90;25.17;;;;;;;;;;5013018;28;20057;-76
2023/02/01 00:21:40;;;;;;;54.97;24.95;;;;;;;;;;5013362;28;20034;-76
2023/02/01 00:24:06;;;;;;;44.77;24.27;;;;;;;;;;5013187;28;20088;-76
2023/02/01 00:26:34;;;;;;;40.37;22.90;;;;;;;;;;5013147;28;20117;-76
2023/02/01 00:29:00;;;;;;;44.63;23.73;;;;;;;;;;5013106;28;20037;-75
2023/02/01 00:31:26;;;;;;;41.23;22.83;;;;;;;;;;5012816;28;20046;-75
2023/02/01 00:33:52;;;;;;;39.27;20.97;;;;;;;;;;5013107;28;20030;-75
2023/02/01 00:36:19;;;;;;;39.27;21.13;;;;;;;;;;5012949;28;20117;-76
2023/02/01 00:38:45;;;;;;;38.23;21.70;;;;;;;;;;5013080;28;20038;-76
2023/02/01 00:41:15;;;;;;;37.40;21.37;;;;;;;;;;5013009;28;20065;-75
2023/02/01 00:43:42;;;;;;;41.07;21.13;;;;;;;;;;5012698;28;20440;-75
2023/02/01 00:46:08;;;;;;;43.47;23.47;;;;;;;;;;5012926;28;20117;-75
2023/02/01 00:48:34;;;;;;;43.70;24.33;;;;;;;;;;5013090;28;20532;-75
2023/02/01 00:51:04;;;;;;;42.60;24.63;;;;;;;;;;5014776;28;20073;-75
2023/02/01 00:53:31;;;;;;;40.47;22.30;;;;;;;;;;5016981;28;20492;-76
2023/02/01 00:55:57;;;;;;;36.97;21.17;;;;;;;;;;4999126;28;20045;-76
2023/02/01 00:58:26;;;;;;;33.87;20.67;;;;;;;;;;5016948;28;20030;-76
2023/02/01 01:01:05;;;;;;;37.43;20.37;;;;;;;;;;5016734;28;20056;-76
2023/02/01 01:03:33;;;;;;;37.43;21.03;;;;;;;;;;5017212;28;20396;-75
2023/02/01 01:05:59;;;;;;;39.73;20.47;;;;;;;;;;5016674;28;20053;-75
2023/02/01 01:08:26;;;;;;;38.10;21.13;;;;;;;;;;5016819;28;20117;-75
2023/02/01 01:10:52;;;;;;;39.03;20.70;;;;;;;;;;5016521;28;20046;-75
2023/02/01 01:13:18;;;;;;;36.50;21.83;;;;;;;;;;5014928;28;20038;-76
2023/02/01 01:15:44;;;;;;;40.83;20.03;;;;;;;;;;5013921;28;20388;-75
2023/02/01 01:18:10;;;;;;;39.67;19.77;;;;;;;;;;5014618;28;20121;-76
2023/02/01 01:20:38;;;;;;;35.53;20.47;;;;;;;;;;4998748;28;20041;-76
2023/02/01 01:23:05;;;;;;;33.83;19.77;;;;;;;;;;5016546;28;20045;-76
2023/02/01 01:25:31;;;;;;;33.90;19.23;;;;;;;;;;5016446;28;20038;-76
2023/02/01 01:27:57;;;;;;;38.97;19.97;;;;;;;;;;4998848;28;20511;-76
2023/02/01 01:30:23;;;;;;;35.30;20.33;;;;;;;;;;5016158;28;20042;-77
2023/02/01 01:32:50;;;;;;;39.27;19.60;;;;;;;;;;5016303;28;20041;-75
2023/02/01 01:35:16;;;;;;;35.47;19.67;;;;;;;;;;5016272;28;20117;-76
2023/02/01 01:37:42;;;;;;;34.20;19.20;;;;;;;;;;5015226;28;20030;-76
2023/02/01 01:40:09;;;;;;;34.37;19.53;;;;;;;;;;5013416;28;20065;-76
2023/02/01 01:42:39;;;;;;;33.97;19.10;;;;;;;;;;5013786;28;20041;-76
2023/02/01 01:45:25;;;;;;;32.70;19.30;;;;;;;;;;5014560;28;20034;-76
2023/02/01 01:47:54;;;;;;;37.57;19.20;;;;;;;;;;5016133;28;20030;-75
2023/02/01 01:50:23;;;;;;;32.03;18.23;;;;;;;;;;5015957;28;20045;-76
2023/02/01 01:52:50;;;;;;;33.60;18.70;;;;;;;;;;5015697;28;20295;-76
2023/02/01 01:55:17;;;;;;;40.87;20.13;;;;;;;;;;5015850;28;20038;-76
2023/02/01 01:57:44;;;;;;;34.30;18.93;;;;;;;;;;5015549;28;20040;-76
2023/02/01 02:00:12;;;;;;;36.13;19.23;;;;;;;;;;5015429;28;20046;-76
2023/02/01 02:02:39;;;;;;;37.70;19.63;;;;;;;;;;4997095;28;20071;-75
2023/02/01 02:05:06;;;;;;;33.23;19.30;;;;;;;;;;5015537;28;20096;-75
2023/02/01 02:07:37;;;;;;;39.20;19.87;;;;;;;;;;4997807;28;20522;-76
2023/02/01 02:10:07;;;;;;;32.83;18.70;;;;;;;;;;5015353;28;20045;-76
2023/02/01 02:12:33;;;;;;;37.73;18.40;;;;;;;;;;5015497;28;20034;-75
2023/02/01 02:15:00;;;;;;;33.03;18.87;;;;;;;;;;5015432;28;20038;-74
2023/02/01 02:17:26;;;;;;;36.13;18.70;;;;;;;;;;5015397;28;20129;-76
2023/02/01 02:20:21;;;;;;;32.50;19.03;;;;;;;;;;5015422;28;20076;-76
2023/02/01 02:23:06;;;;;;;35.37;19.57;;;;;;;;;;5002316;28;20061;-76
2023/02/01 02:25:51;;;;;;;36.47;20.30;;;;;;;;;;5015171;28;20041;-75
2023/02/01 02:28:20;;;;;;;36.23;19.17;;;;;;;;;;4997484;28;20041;-75
2023/02/01 02:30:57;;;;;;;40.37;20.17;;;;;;;;;;5014865;28;20084;-75
2023/02/01 02:33:23;;;;;;;36.67;20.63;;;;;;;;;;4997297;28;20499;-76
2023/02/01 02:35:56;;;;;;;37.87;19.60;;;;;;;;;;4997507;28;20492;-76
2023/02/01 02:38:22;;;;;;;;;;;;;;;;;;5015037;28;20029;-76
2023/02/01 02:40:48;;;;;;;36.73;20.67;;;;;;;;;;5015000;28;19959;-76
2023/02/01 02:49:25;;;;;;;38.97;19.70;;;;;;;;;;5015275;28;20041;-76
2023/02/01 02:54:46;;;;;;;44.10;21.23;;;;;;;;;;5015178;28;20096;-75
2023/02/01 03:05:41;;;;;;;39.67;19.70;;;;;;;;;;5014292;28;20045;-75
2023/02/01 03:08:10;;;;;;;36.43;20.37;;;;;;;;;;4997210;28;20030;-76
2023/02/01 03:10:46;;;;;;;33.40;18.70;;;;;;;;;;5014540;28;20050;-76
2023/02/01 03:13:14;;;;;;;38.93;18.63;;;;;;;;;;5013930;28;20480;-75
2023/02/01 03:16:04;;;;;;;32.37;17.83;;;;;;;;;;5014255;28;20033;-75
2023/02/01 03:18:43;;;;;;;31.77;15.87;;;;;;;;;;4986566;28;20092;-75
2023/02/01 03:21:13;;;;;;;28.90;15.23;;;;;;;;;;5014346;28;20049;-75
2023/02/01 03:23:39;;;;;;;30.27;15.17;;;;;;;;;;5014094;28;20133;-75
2023/02/01 03:26:08;;;;;;;27.10;14.73;;;;;;;;;;5014154;28;20105;-76
2023/02/01 03:28:35;;;;;;;28.03;15.03;;;;;;;;;;5014131;28;20116;-75
2023/02/01 03:31:02;;;;;;;26.53;15.03;;;;;;;;;;5014015;28;20054;-76
2023/02/01 03:33:29;;;;;;;32.30;15.47;;;;;;;;;;5014145;28;20065;-76
2023/02/01 03:36:01;;;;;;;34.03;16.67;;;;;;;;;;5013896;28;20040;-75
2023/02/01 03:38:46;;;;;;;27.60;17.03;;;;;;;;;;4996402;28;20129;-76
2023/02/01 03:41:28;;;;;;;30.50;17.00;;;;;;;;;;4996127;28;20504;-75
2023/02/01 03:44:13;;;;;;;33.53;17.83;;;;;;;;;;5014009;28;20038;-76
2023/02/01 03:46:42;;;;;;;30.77;17.73;;;;;;;;;;5013453;28;20046;-75
2023/02/01 03:49:10;;;;;;;39.37;18.37;;;;;;;;;;5013831;28;20041;-76
2023/02/01 03:51:39;;;;;;;32.80;18.47;;;;;;;;;;5013457;28;20492;-75
2023/02/01 03:54:06;;;;;;;32.43;18.07;;;;;;;;;;5013371;28;20108;-76
2023/02/01 03:56:32;;;;;;;35.30;19.67;;;;;;;;;;5013752;28;20034;-76
2023/02/01 03:58:59;;;;;;;34.00;18.23;;;;;;;;;;5013441;28;20030;-76
2023/02/01 04:01:29;;;;;;;33.00;18.33;;;;;;;;;;5013680;28;20056;-75
2023/02/01 04:03:55;;;;;;;34.97;18.40;;;;;;;;;;5013682;28;20080;-75
2023/02/01 04:06:21;;;;;;;28.83;16.83;;;;;;;;;;5013889;28;20091;-76
2023/02/01 04:08:47;;;;;;;30.97;17.97;;;;;;;;;;4995716;28;20033;-76
2023/02/01 04:11:13;;;;;;;33.17;17.77;;;;;;;;;;5013493;28;20439;-76
2023/02/01 04:13:40;;;;;;;29.47;17.13;;;;;;;;;;5013195;28;20042;-76
2023/02/01 04:16:06;;;;;;;29.27;17.13;;;;;;;;;;5013507;28;20038;-76
2023/02/01 04:18:32;;;;;;;32.97;17.27;;;;;;;;;;5013232;28;20057;-76
2023/02/01 04:20:58;;;;;;;32.33;17.27;;;;;;;;;;5013302;28;20495;-76
2023/02/01 04:23:24;;;;;;;28.97;16.80;;;;;;;;;;5013342;28;20038;-76
2023/02/01 04:25:50;;;;;;;31.03;16.97;;;;;;;;;;5012623;28;20108;-75
2023/02/01 04:28:16;;;;;;;29.77;16.60;;;;;;;;;;5013227;28;20038;-76
2023/02/01 04:30:42;;;;;;;29.83;17.43;;;;;;;;;;5012955;28;20042;-75
2023/02/01 04:33:08;;;;;;;35.77;18.10;;;;;;;;;;5012981;28;20494;-76
2023/02/01 04:35:34;;;;;;;29.90;17.67;;;;;;;;;;4995365;28;20049;-76
2023/02/01 04:38:01;;;;;;;31.07;17.80;;;;;;;;;;5013030;28;20069;-75
2023/02/01 04:40:27;;;;;;;32.00;18.33;;;;;;;;;;5013066;28;20040;-75
2023/02/01 04:42:53;;;;;;;29.30;16.87;;;;;;;;;;4995311;28;20038;-75
2023/02/01 04:45:19;;;;;;;35.33;17.67;;;;;;;;;;5013044;28;20266;-75
2023/02/01 04:47:45;;;;;;;31.53;18.67;;;;;;;;;;5012848;28;20030;-76
2023/02/01 04:50:11;;;;;;;32.97;17.33;;;;;;;;;;5012962;28;20045;-75
2023/02/01 04:52:37;;;;;;;37.40;20.27;;;;;;;;;;5013050;28;20022;-76
2023/02/01 04:55:04;;;;;;;39.63;19.13;;;;;;;;;;5012839;28;20034;-75
2023/02/01 04:57:30;;;;;;;39.67;20.27;;;;;;;;;;5013057;28;20464;-76
2023/02/01 04:59:56;;;;;;;36.23;18.47;;;;;;;;;;4995265;28;20046;-76
2023/02/01 05:02:23;;;;;;;38.80;19.77;;;;;;;;;;5012721;28;20042;-75
2023/02/01 05:04:50;;;;;;;39.40;18.90;;;;;;;;;;5012804;28;20400;-76
2023/02/01 05:07:16;;;;;;;38.67;18.97;;;;;;;;;;5012780;28;20041;-76
2023/02/01 05:09:42;;;;;;;43.90;18.83;;;;;;;;;;5012412;28;20034;-76
2023/02/01 05:14:54;;;;;;;40.20;18.53;;;;;;;;;;5012809;28;20068;-76
2023/02/01 05:17:20;;;;;;;36.67;19.20;;;;;;;;;;5012883;28;20377;-75
2023/02/01 05:19:46;;;;;;;40.67;19.13;;;;;;;;;;4994993;28;20088;-75
2023/02/01 05:22:12;;;;;;;33.97;18.67;;;;;;;;;;5012540;28;20037;-76
2023/02/01 05:24:38;;;;;;;30.53;18.23;;;;;;;;;;5012562;28;20034;-76
2023/02/01 05:27:04;;;;;;;34.63;19.30;;;;;;;;;;5012670;28;20038;-76
2023/02/01 05:29:30;;;;;;;30.20;19.40;;;;;;;;;;5012663;28;20041;-77
2023/02/01 05:31:56;;;;;;;36.00;22.07;;;;;;;;;;5012392;28;20070;-76
2023/02/01 05:34:22;;;;;;;34.50;19.60;;;;;;;;;;5012628;28;20030;-76
2023/02/01 05:36:48;;;;;;;31.13;18.17;;;;;;;;;;5014091;28;20034;-76
2023/02/01 05:39:14;;;;;;;32.73;19.27;;;;;;;;;;5016496;28;20030;-76
2023/02/01 05:41:41;;;;;;;32.87;18.23;;;;;;;;;;5016234;28;20480;-76
2023/02/01 05:44:07;;;;;;;40.10;19.20;;;;;;;;;;5015950;28;20030;-76
2023/02/01 05:46:34;;;;;;;38.53;19.27;;;;;;;;;;5015856;28;20034;-75
2023/02/01 05:49:00;;;;;;;38.57;20.17;;;;;;;;;;5015673;28;20030;-76
2023/02/01 05:51:26;;;;;;;35.53;18.43;;;;;;;;;;5015894;28;20041;-76
2023/02/01 05:53:52;;;;;;;34.43;17.77;;;;;;;;;;5015594;28;20072;-75
2023/02/01 05:56:18;;;;;;;31.23;18.87;;;;;;;;;;4998242;28;20052;-75
2023/02/01 05:58:44;;;;;;;35.10;18.50;;;;;;;;;;5015886;28;20038;-75
2023/02/01 06:01:10;;;;;;;40.67;19.27;;;;;;;;;;5015864;28;20100;-76
2023/02/01 06:03:37;;;;;;;32.80;19.10;;;;;;;;;;5015734;28;20030;-76
2023/02/01 06:06:03;;;;;;;35.70;18.00;;;;;;;;;;5015649;28;20034;-76
2023/02/01 06:08:30;;;;;;;35.80;18.57;;;;;;;;;;5015466;28;20132;-76
2023/02/01 06:11:00;;;;;;;34.57;18.23;;;;;;;;;;5015457;28;20045;-75
2023/02/01 06:13:26;;;;;;;34.37;19.23;;;;;;;;;;4997940;28;20030;-75
2023/02/01 06:15:52;;;;;;;40.10;18.93;;;;;;;;;;5015527;28;20049;-75
2023/02/01 06:18:18;;;;;;;35.13;19.00;;;;;;;;;;5015589;28;20038;-76
2023/02/01 06:20:44;;;;;;;45.77;20.30;;;;;;;;;;5015381;28;20044;-76
2023/02/01 06:23:10;;;;;;;35.30;20.30;;;;;;;;;;5015424;28;20038;-76
2023/02/01 06:25:37;;;;;;;34.93;19.80;;;;;;;;;;5015243;28;20041;-76
2023/02/01 06:28:05;;;;;;;36.03;20.00;;;;;;;;;;5015408;28;20069;-75
2023/02/01 06:30:32;;;;;;;37.60;20.07;;;;;;;;;;5015804;28;20091;-76
2023/02/01 06:32:58;;;;;;;39.27;21.23;;;;;;;;;;5015533;28;20034;-76
2023/02/01 06:35:27;;;;;;;37.10;19.73;;;;;;;;;;5015664;28;20542;-76
2023/02/01 06:37:53;;;;;;;41.53;20.10;;;;;;;;;;5015260;28;20132;-75
2023/02/01 06:40:19;;;;;;;38.40;20.30;;;;;;;;;;5014862;28;20030;-76
2023/02/01 06:42:45;;;;;;;41.90;19.40;;;;;;;;;;4997353;28;20041;-76
2023/02/01 06:45:11;;;;;;;41.97;20.33;;;;;;;;;;5014905;28;20034;-76
2023/02/01 06:47:38;;;;;;;38.70;20.13;;;;;;;;;;5014872;28;20531;-76
2023/02/01 06:50:04;;;;;;;38.50;20.23;;;;;;;;;;4996987;28;20038;-75
2023/02/01 06:52:30;;;;;;;41.27;20.23;;;;;;;;;;5014307;28;20042;-75
2023/02/01 06:54:56;;;;;;;41.47;20.47;;;;;;;;;;5014423;28;20037;-76
2023/02/01 06:57:22;;;;;;;38.20;20.20;;;;;;;;;;5014609;28;20049;-77
2023/02/01 06:59:48;;;;;;;39.97;19.80;;;;;;;;;;5014611;28;20049;-76
2023/02/01 07:02:14;;;;;;;44.40;22.30;;;;;;;;;;5014303;28;20385;-76
2023/02/01 07:04:41;;;;;;;43.60;20.63;;;;;;;;;;5014540;28;20476;-78
2023/02/01 07:07:07;;;;;;;57.40;21.17;;;;;;;;;;5014559;28;20088;-82
2023/02/01 07:09:33;;;;;;;45.23;21.43;;;;;;;;;;5014442;28;20030;-75
2023/02/01 07:11:59;;;;;;;49.77;21.17;;;;;;;;;;5014423;28;20539;-76
2023/02/01 07:14:25;;;;;;;44.77;20.67;;;;;;;;;;4996785;28;20034;-74
2023/02/01 07:16:51;;;;;;;49.83;22.10;;;;;;;;;;5014455;28;20041;-74
2023/02/01 07:19:17;;;;;;;48.10;21.73;;;;;;;;;;4996455;28;20412;-74
2023/02/01 07:21:43;;;;;;;39.33;21.47;;;;;;;;;;5013936;28;20042;-73
2023/02/01 07:24:09;;;;;;;48.37;21.67;;;;;;;;;;5013959;28;20499;-70
2023/02/01 07:26:35;;;;;;;43.50;21.43;;;;;;;;;;5013994;28;20116;-69
2023/02/01 07:29:01;;;;;;;45.50;22.53;;;;;;;;;;5013735;28;20034;-67
2023/02/01 07:31:28;;;;;;;35.10;19.03;;;;;;;;;;5013950;28;20053;-71
2023/02/01 07:33:56;;;;;;;37.47;19.83;;;;;;;;;;5014104;28;20112;-68
2023/02/01 07:36:22;;;;;;;30.43;16.63;;;;;;;;;;5013874;28;20468;-69
2023/02/01 07:38:48;;;;;;;46.27;19.10;;;;;;;;;;5010903;28;20073;-69
2023/02/01 07:41:14;;;;;;;339.87;51.97;;;;;;;;;;5013221;28;20041;-70
2023/02/01 07:43:41;;;;;;;47.70;18.30;;;;;;;;;;5012916;28;20058;-76
2023/02/01 07:46:07;;;;;;;29.57;16.80;;;;;;;;;;5013343;28;20042;-72
2023/02/01 07:48:34;;;;;;;33.73;17.03;;;;;;;;;;5012925;28;20413;-72
2023/02/01 07:51:10;;;;;;;26.40;15.63;;;;;;;;;;5012825;28;20566;-73
2023/02/01 07:53:36;;;;;;;33.33;17.63;;;;;;;;;;5013311;28;20030;-72
2023/02/01 07:56:03;;;;;;;36.57;18.13;;;;;;;;;;5013505;28;20038;-72
2023/02/01 07:58:29;;;;;;;30.53;16.70;;;;;;;;;;5013059;28;20034;-73
2023/02/01 08:03:41;;;;;;;33.43;16.87;;;;;;;;;;5013007;28;20053;-72
2023/02/01 08:06:07;;;;;;;30.50;17.43;;;;;;;;;;5013194;28;20045;-72
2023/02/01 08:08:33;;;;;;;33.00;17.93;;;;;;;;;;4995105;28;20480;-72
2023/02/01 08:11:02;;;;;;;34.97;18.47;;;;;;;;;;4994975;28;20140;-71
2023/02/01 08:13:28;;;;;;;47.03;17.10;;;;;;;;;;5012844;28;20034;-72
2023/02/01 08:15:58;;;;;;;37.13;18.40;;;;;;;;;;4995049;28;20045;-72
2023/02/01 08:18:24;;;;;;;35.27;17.53;;;;;;;;;;5012927;28;20384;-72
2023/02/01 08:20:51;;;;;;;40.03;22.03;;;;;;;;;;5012830;28;20038;-72
2023/02/01 08:23:17;;;;;;;56.57;26.43;;;;;;;;;;4964430;28;20124;-72
2023/02/01 08:25:43;;;;;;;41.40;23.63;;;;;;;;;;5004469;28;20511;-73
2023/02/01 08:28:10;;;;;;;44.17;24.43;;;;;;;;;;5012591;28;20507;-72
2023/02/01 08:30:39;;;;;;;47.00;25.27;;;;;;;;;;5012524;28;20498;-71
2023/02/01 08:33:09;;;;;;;40.73;22.43;;;;;;;;;;5012482;28;20080;-70
2023/02/01 08:35:35;;;;;;;38.03;22.23;;;;;;;;;;5012932;28;20102;-72
2023/02/01 08:38:02;;;;;;;36.10;19.50;;;;;;;;;;5012669;28;20030;-72
2023/02/01 08:40:28;;;;;;;32.00;17.20;;;;;;;;;;4994632;28;20048;-72
2023/02/01 08:42:55;;;;;;;35.93;18.13;;;;;;;;;;5013048;28;20370;-72
2023/02/01 08:45:25;;;;;;;35.93;16.40;;;;;;;;;;4995412;28;20420;-72
2023/02/01 08:47:52;;;;;;;33.67;16.83;;;;;;;;;;5012924;28;20464;-72
2023/02/01 08:50:18;;;;;;;31.07;16.60;;;;;;;;;;5012964;28;20488;-72
2023/02/01 08:52:45;;;;;;;142.13;26.57;;;;;;;;;;5012825;28;20061;-72
2023/02/01 08:55:11;;;;;;;48.83;18.27;;;;;;;;;;5012954;28;20137;-73
2023/02/01 08:57:38;;;;;;;34.27;18.07;;;;;;;;;;4997977;28;20038;-72
2023/02/01 09:00:05;;;;;;;28.57;17.03;;;;;;;;;;5032291;28;20057;-72
2023/02/01 09:02:32;;;;;;;53.40;19.57;;;;;;;;;;5031575;28;20464;-72
2023/02/01 09:04:58;;;;;;;41.60;17.70;;;;;;;;;;5032370;28;20034;-72
2023/02/01 09:07:24;;;;;;;48.17;18.00;;;;;;;;;;5032479;28;20121;-72
2023/02/01 09:09:51;;;;;;;31.77;17.33;;;;;;;;;;5032459;28;20040;-73
2023/02/01 09:12:17;;;;;;;35.03;19.30;;;;;;;;;;5034581;28;20041;-72
2023/02/01 09:14:43;;;;;;;28.93;18.03;;;;;;;;;;5036243;28;20069;-72
2023/02/01 09:17:09;;;;;;;31.40;17.40;;;;;;;;;;5036221;28;20124;-72
2023/02/01 09:19:35;;;;;;;29.47;16.57;;;;;;;;;;5035999;28;20098;-72
2023/02/01 09:22:01;;;;;;;29.30;16.27;;;;;;;;;;5036239;28;20034;-72
2023/02/01 09:24:27;;;;;;;28.83;16.80;;;;;;;;;;5036091;28;20480;-72
2023/02/01 09:26:53;;;;;;;35.77;17.70;;;;;;;;;;5035755;28;20395;-73
2023/02/01 09:29:20;;;;;;;35.97;19.13;;;;;;;;;;5035935;28;20038;-72
2023/02/01 09:31:46;;;;;;;34.77;18.57;;;;;;;;;;5035790;28;20045;-73
2023/02/01 09:34:12;;;;;;;32.73;19.00;;;;;;;;;;5035470;28;20392;-73
2023/02/01 09:36:38;;;;;;;33.77;18.93;;;;;;;;;;5035574;28;20045;-73
2023/02/01 09:39:04;;;;;;;32.80;18.10;;;;;;;;;;5035085;28;20036;-73
2023/02/01 09:41:30;;;;;;;29.20;18.63;;;;;;;;;;5034070;28;20033;-73
2023/02/01 09:44:19;;;;;;;30.47;19.07;;;;;;;;;;5035196;28;20033;-73
2023/02/01 09:46:46;;;;;;;32.03;19.03;;;;;;;;;;5025082;28;20033;-73
2023/02/01 09:49:14;;;;;;;31.00;18.73;;;;;;;;;;5035639;28;20029;-73
2023/02/01 09:51:43;;;;;;;32.97;18.80;;;;;;;;;;5035095;28;20051;-73
2023/02/01 09:54:18;;;;;;;35.37;20.17;;;;;;;;;;5035548;28;20032;-73
2023/02/01 09:56:49;;;;;;;34.33;18.90;;;;;;;;;;5035286;28;20038;-73
2023/02/01 09:59:21;;;;;;;33.00;18.37;;;;;;;;;;5035157;28;20057;-73
2023/02/01 10:01:48;;;;;;;37.10;20.88;;;;;;;;;;5035398;28;20046;-73
2023/02/01 10:04:14;;;;;;;33.63;18.90;;;;;;;;;;5035272;28;20049;-73
2023/02/01 10:06:46;;;;;;;33.27;19.80;;;;;;;;;;5035153;28;20488;-73
2023/02/01 10:09:15;;;;;;;32.23;18.00;;;;;;;;;;5035215;28;20034;-73
2023/02/01 10:12:00;;;;;;;37.60;20.93;;;;;;;;;;5035038;28;20786;-73
2023/02/01 10:14:44;;;;;;;34.87;19.87;;;;;;;;;;5035022;28;20044;-71
2023/02/01 10:17:10;;;;;;;37.47;20.03;;;;;;;;;;5035072;28;20550;-71
2023/02/01 10:19:48;;;;;;;34.57;20.50;;;;;;;;;;5035198;28;20403;-71
2023/02/01 10:22:29;;;;;;;38.13;20.50;;;;;;;;;;5034680;28;20045;-71
2023/02/01 10:25:04;;;;;;;34.63;20.70;;;;;;;;;;5034077;28;20068;-72
2023/02/01 10:27:42;;;;;;;36.67;21.10;;;;;;;;;;5034275;28;20033;-71
2023/02/01 10:30:17;;;;;;;36.03;20.87;;;;;;;;;;5034697;28;20061;-71
2023/02/01 10:32:43;;;;;;;34.43;20.33;;;;;;;;;;5034527;28;20067;-71
2023/02/01 10:35:14;;;;;;;31.90;19.17;;;;;;;;;;5034430;28;20030;-71
2023/02/01 10:37:42;;;;;;;35.23;19.90;;;;;;;;;;5034780;28;20535;-71
2023/02/01 10:40:15;;;;;;;36.80;21.27;;;;;;;;;;5034849;28;20538;-71
2023/02/01 10:42:41;;;;;;;32.47;19.47;;;;;;;;;;5034605;28;20072;-71
2023/02/01 10:45:12;;;;;;;34.33;19.63;;;;;;;;;;5034649;28;20042;-71
2023/02/01 10:47:38;;;;;;;34.57;20.17;;;;;;;;;;5034526;28;20484;-71
2023/02/01 10:50:25;;;;;;;32.10;20.47;;;;;;;;;;5034004;28;20535;-71
2023/02/01 10:53:05;;;;;;;33.10;19.93;;;;;;;;;;5034294;28;20028;-71
2023/02/01 10:55:37;;;;;;;35.23;20.37;;;;;;;;;;5034105;28;20030;-71
2023/02/01 10:58:08;;;;;;;33.37;20.13;;;;;;;;;;5034155;28;20412;-71
2023/02/01 11:00:38;;;;;;;34.80;19.80;;;;;;;;;;5033597;28;20053;-71
2023/02/01 11:03:20;;;;;;;34.30;20.20;;;;;;;;;;5033921;28;20029;-71
2023/02/01 11:05:46;;;;;;;38.70;21.87;;;;;;;;;;5034053;28;20095;-71
2023/02/01 11:08:16;;;;;;;31.70;20.00;;;;;;;;;;5033741;28;20563;-72
2023/02/01 11:10:43;;;;;;;42.50;21.50;;;;;;;;;;5033939;28;20495;-72
2023/02/01 11:13:17;;;;;;;36.53;20.97;;;;;;;;;;5034087;28;20108;-72
2023/02/01 11:15:47;;;;;;;36.70;20.60;;;;;;;;;;5033925;28;20040;-72
2023/02/01 11:18:20;;;;;;;30.90;20.30;;;;;;;;;;5033827;28;20026;-72
2023/02/01 11:20:51;;;;;;;34.83;22.20;;;;;;;;;;5033828;28;20553;-72
2023/02/01 11:23:22;;;;;;;38.20;22.07;;;;;;;;;;5033494;28;20052;-72
2023/02/01 11:25:54;;;;;;;34.47;21.70;;;;;;;;;;5033379;28;20041;-72
2023/02/01 11:28:22;;;;;;;33.85;22.00;;;;;;;;;;5033616;28;20037;-73
2023/02/01 11:30:48;;;;;;;32.93;20.83;;;;;;;;;;5033765;28;20056;-73
2023/02/01 11:33:17;;;;;;;36.73;21.27;;;;;;;;;;5033561;28;20091;-73
2023/02/01 11:35:43;;;;;;;37.80;21.33;;;;;;;;;;5033245;28;20033;-73
2023/02/01 11:38:29;;;;;;;38.40;21.53;;;;;;;;;;5033136;28;20055;-74
2023/02/01 11:40:55;;;;;;;37.27;22.63;;;;;;;;;;5033611;28;20109;-73
2023/02/01 11:43:25;;;;;;;36.07;23.23;;;;;;;;;;5033474;28;20088;-73
2023/02/01 11:46:04;;;;;;;38.73;20.47;;;;;;;;;;5033136;28;20154;-73
2023/02/01 11:48:31;;;;;;;34.37;21.57;;;;;;;;;;5032798;28;20061;-73
2023/02/01 11:51:02;;;;;;;36.27;21.33;;;;;;;;;;5032948;28;20045;-73
2023/02/01 11:53:37;;;;;;;34.67;21.70;;;;;;;;;;5033086;28;20034;-73
2023/02/01 11:56:33;;;;;;;37.57;23.37;;;;;;;;;;5032176;28;20033;-73
2023/02/01 11:59:14;;;;;;;38.40;22.73;;;;;;;;;;4962260;28;20035;-73
2023/02/01 12:01:41;;;;;;;36.10;23.03;;;;;;;;;;5033521;28;20068;-73
2023/02/01 12:04:32;;;;;;;39.73;23.53;;;;;;;;;;5032633;28;20579;-73
2023/02/01 12:07:01;;;;;;;37.57;21.77;;;;;;;;;;5032939;28;20572;-73
2023/02/01 12:09:46;;;;;;;36.37;23.43;;;;;;;;;;5032720;28;20614;-73
2023/02/01 12:12:19;;;;;;;37.63;23.60;;;;;;;;;;5032903;28;20045;-73
2023/02/01 12:14:45;;;;;;;40.30;24.57;;;;;;;;;;5032833;28;20036;-73
2023/02/01 12:17:11;;;;;;;38.73;22.93;;;;;;;;;;5032945;28;20037;-73
2023/02/01 12:19:56;;;;;;;35.10;24.70;;;;;;;;;;5031717;28;20056;-73
2023/02/01 12:22:56;;;;;;;37.30;24.43;;;;;;;;;;5032825;28;20034;-73
2023/02/01 12:25:43;;;;;;;40.70;24.73;;;;;;;;;;4990538;28;20116;-73
2023/02/01 12:28:09;;;;;;;37.33;23.47;;;;;;;;;;5032761;28;20496;-73
2023/02/01 12:30:55;;;;;;;36.50;24.07;;;;;;;;;;5032859;28;20542;-72
2023/02/01 12:33:41;;;;;;;38.50;24.00;;;;;;;;;;5032686;28;20095;-73
2023/02/01 12:36:16;;;;;;;38.27;23.87;;;;;;;;;;5032635;28;20037;-73
2023/02/01 12:38:50;;;;;;;48.47;27.03;;;;;;;;;;5030297;28;20072;-73
2023/02/01 12:41:22;;;;;;;36.33;24.13;;;;;;;;;;5028332;28;20044;-73
2023/02/01 12:43:48;;;;;;;37.55;24.65;;;;;;;;;;5029878;28;20079;-73
2023/02/01 12:46:35;;;;;;;38.97;24.90;;;;;;;;;;5030136;28;20033;-73
2023/02/01 12:49:13;;;;;;;36.07;23.90;;;;;;;;;;5032175;28;20068;-73
2023/02/01 12:51:41;;;;;;;34.97;24.33;;;;;;;;;;5032097;28;20042;-72
2023/02/01 12:54:07;;;;;;;41.87;24.10;;;;;;;;;;5032018;28;20029;-73
2023/02/01 12:56:48;;;;;;;37.77;25.03;;;;;;;;;;5032285;28;20039;-72
2023/02/01 12:59:17;;;;;;;35.07;23.87;;;;;;;;;;5032003;28;20036;-73
2023/02/01 13:01:48;;;;;;;36.80;24.20;;;;;;;;;;5032241;28;20496;-73
2023/02/01 13:04:21;;;;;;;41.07;25.63;;;;;;;;;;5032489;28;20087;-73
2023/02/01 13:06:47;;;;;;;38.08;24.55;;;;;;;;;;5030824;28;20121;-73
2023/02/01 13:09:33;;;;;;;32.73;23.93;;;;;;;;;;5029706;28;20080;-73
2023/02/01 13:12:02;;;;;;;38.97;24.67;;;;;;;;;;5029355;28;20052;-74
2023/02/01 13:14:40;;;;;;;44.80;24.43;;;;;;;;;;5031705;28;20542;-73
2023/02/01 13:17:11;;;;;;;35.20;23.93;;;;;;;;;;5032121;28;20033;-73
2023/02/01 13:19:39;;;;;;;37.00;25.60;;;;;;;;;;5032000;28;20117;-73
2023/02/01 13:22:11;;;;;;;45.47;25.93;;;;;;;;;;5032072;28;20500;-73
2023/02/01 13:24:42;;;;;;;37.03;24.77;;;;;;;;;;5032119;28;20057;-73
2023/02/01 13:27:11;;;;;;;36.53;25.07;;;;;;;;;;5031872;28;20033;-73
2023/02/01 13:29:42;;;;;;;34.40;24.03;;;;;;;;;;5031884;28;20387;-74
2023/02/01 13:32:08;;;;;;;40.07;24.17;;;;;;;;;;5031747;28;20042;-73
2023/02/01 13:34:46;;;;;;;37.50;25.33;;;;;;;;;;5031944;28;20026;-72
2023/02/01 13:37:30;;;;;;;42.73;27.33;;;;;;;;;;5029839;28;20108;-72
2023/02/01 13:40:19;;;;;;;46.47;25.90;;;;;;;;;;5031064;28;20029;-71
2023/02/01 13:42:51;;;;;;;42.03;27.37;;;;;;;;;;5021461;28;20108;-72
2023/02/01 13:45:23;;;;;;;39.77;26.87;;;;;;;;;;5030674;28;20072;-72
2023/02/01 13:47:52;;;;;;;40.50;27.42;;;;;;;;;;5030975;28;20034;-72
2023/02/01 13:50:25;;;;;;;41.07;27.57;;;;;;;;;;5030874;28;20037;-72
2023/02/01 13:52:53;;;;;;;42.80;27.00;;;;;;;;;;5030817;28;20049;-72
2023/02/01 13:55:39;;;;;;;41.57;26.23;;;;;;;;;;5031092;28;20029;-72
2023/02/01 13:58:08;;;;;;;36.17;26.27;;;;;;;;;;5031851;28;20095;-72
2023/02/01 14:00:36;;;;;;;43.60;27.70;;;;;;;;;;5035391;28;20053;-72
2023/02/01 14:03:02;;;;;;;42.70;27.53;;;;;;;;;;5034941;28;20387;-72
2023/02/01 14:05:31;;;;;;;42.20;27.43;;;;;;;;;;5035320;28;20582;-72
2023/02/01 14:08:03;;;;;;;44.40;28.97;;;;;;;;;;5035397;28;20044;-72
2023/02/01 14:10:47;;;;;;;38.38;27.02;;;;;;;;;;5035265;28;20088;-73
2023/02/01 14:13:25;;;;;;;41.13;27.83;;;;;;;;;;5035229;28;20033;-71
2023/02/01 14:16:18;;;;;;;46.47;28.90;;;;;;;;;;5034983;28;20044;-72
2023/02/01 14:18:46;;;;;;;42.80;29.87;;;;;;;;;;5030860;28;20046;-71
2023/02/01 14:21:17;;;;;;;45.07;29.37;;;;;;;;;;5034309;28;20044;-71
2023/02/01 14:23:45;;;;;;;44.13;30.23;;;;;;;;;;5035192;28;20376;-71
2023/02/01 14:26:13;;;;;;;55.63;31.63;;;;;;;;;;5034507;28;20256;-71
2023/02/01 14:28:42;;;;;;;47.40;31.20;;;;;;;;;;5034240;28;20030;-71
2023/02/01 14:31:16;;;;;;;48.17;29.73;;;;;;;;;;5034257;28;20566;-71
2023/02/01 14:33:43;;;;;;;46.60;31.40;;;;;;;;;;5034504;28;20037;-71
2023/02/01 14:36:14;;;;;;;47.93;33.53;;;;;;;;;;5034591;28;20030;-71
2023/02/01 14:38:48;;;;;;;53.10;33.60;;;;;;;;;;5034542;28;20148;-72
2023/02/01 14:41:25;;;;;;;56.47;37.43;;;;;;;;;;5034459;28;20038;-71
2023/02/01 14:44:11;;;;;;;51.47;36.17;;;;;;;;;;5035303;28;20403;-71
2023/02/01 14:46:56;;;;;;;53.53;36.70;;;;;;;;;;5034026;28;20033;-70
2023/02/01 14:49:23;;;;;;;57.97;37.10;;;;;;;;;;5033206;28;20191;-71
2023/02/01 14:51:49;;;;;;;56.97;38.67;;;;;;;;;;5033645;28;20049;-72
2023/02/01 14:54:15;;;;;;;53.07;37.43;;;;;;;;;;5032230;28;20026;-72